Time;durP1;ratioP1;P1;durP2;ratioP2;P2;SDS_P1;SDS_P2;PMS_P1;PMS_P2;Temp;Humidity;BMP_temperature;BMP_pressure;BME280_temperature;BME280_humidity;BME280_pressure;Samples;Min_cycle;Max_cycle;Signal;HPM_P1;HPM_P2
2021/06/05 00:01:49;;;;;;;24.87;21.10;;;19.20;99.90;;;;;;5026717;28;20197;-41
2021/06/05 00:04:15;;;;;;;25.00;22.40;;;19.10;99.90;;;;;;5039232;28;20298;-42
2021/06/05 00:06:41;;;;;;;30.33;24.80;;;19.00;99.90;;;;;;5026961;28;20448;-40
2021/06/05 00:09:07;;;;;;;28.33;24.20;;;19.00;99.90;;;;;;5029083;28;20483;-40
2021/06/05 00:11:35;;;;;;;26.97;24.10;;;18.90;99.90;;;;;;5033014;28;20269;-42
2021/06/05 00:14:04;;;;;;;24.20;21.80;;;18.90;99.90;;;;;;5037251;28;20424;-41
2021/06/05 00:16:37;;;;;;;25.77;23.17;;;18.90;99.90;;;;;;5046304;28;20997;-44
2021/06/05 00:19:03;;;;;;;26.57;23.67;;;18.90;99.90;;;;;;5037775;28;20425;-41
2021/06/05 00:21:29;;;;;;;27.33;24.40;;;18.90;99.90;;;;;;5026664;28;20425;-40
2021/06/05 00:23:56;;;;;;;25.63;23.07;;;18.90;99.90;;;;;;5027485;28;20440;-40
2021/06/05 00:26:22;;;;;;;25.97;23.13;;;18.80;99.90;;;;;;5037998;28;20202;-40
2021/06/05 00:28:48;;;;;;;28.73;25.70;;;18.70;99.90;;;;;;5045122;28;20460;-41
2021/06/05 00:31:14;;;;;;;29.60;26.00;;;18.80;99.90;;;;;;5030813;28;20464;-43
2021/06/05 00:33:40;;;;;;;28.93;25.83;;;18.80;99.90;;;;;;5030986;28;20277;-40
2021/06/05 00:36:08;;;;;;;31.63;28.23;;;18.80;99.90;;;;;;5026088;28;20190;-40
2021/06/05 00:38:36;;;;;;;31.00;27.57;;;18.90;99.90;;;;;;5026663;28;20425;-40
2021/06/05 00:41:03;;;;;;;34.07;30.10;;;18.80;99.90;;;;;;5036747;28;20437;-41
2021/06/05 00:43:34;;;;;;;32.40;28.70;;;18.80;99.90;;;;;;5040904;28;20541;-40
2021/06/05 00:46:00;;;;;;;32.47;29.07;;;18.80;99.90;;;;;;5026173;28;20447;-42
2021/06/05 00:48:26;;;;;;;35.70;31.17;;;18.80;99.90;;;;;;5035301;28;20511;-39
2021/06/05 00:50:52;;;;;;;33.37;29.07;;;18.70;99.90;;;;;;5028097;28;20190;-40
2021/06/05 00:53:21;;;;;;;33.17;29.67;;;18.70;99.90;;;;;;5026345;28;20436;-41
2021/06/05 00:55:50;;;;;;;33.77;29.10;;;18.70;99.90;;;;;;5037845;28;20432;-42
2021/06/05 00:58:17;;;;;;;32.30;26.60;;;18.70;99.90;;;;;;5037524;28;20850;-42
2021/06/05 01:00:44;;;;;;;32.83;27.60;;;18.70;99.90;;;;;;5028413;28;20428;-41
2021/06/05 01:03:11;;;;;;;32.70;29.20;;;18.80;99.90;;;;;;5037583;28;20435;-39
2021/06/05 01:05:39;;;;;;;34.17;28.70;;;18.70;99.90;;;;;;5031942;28;20424;-41
2021/06/05 01:08:32;;;;;;;29.40;25.67;;;18.80;99.90;;;;;;5029892;28;20444;-40
2021/06/05 01:11:11;;;;;;;29.17;25.33;;;18.70;99.90;;;;;;5036749;28;20427;-40
2021/06/05 01:13:43;;;;;;;28.30;25.20;;;18.70;99.90;;;;;;5040590;28;20770;-40
2021/06/05 01:16:15;;;;;;;26.13;23.40;;;18.70;99.90;;;;;;5049909;28;20804;-39
2021/06/05 01:19:42;;;;;;;29.77;25.67;;;18.60;99.90;;;;;;5044410;28;20780;-42
2021/06/05 01:22:33;;;;;;;25.77;22.97;;;18.60;99.90;;;;;;4994150;28;21015;-40
2021/06/05 01:25:20;;;;;;;31.87;25.30;;;18.50;99.90;;;;;;5004585;28;20457;-40
2021/06/05 01:27:52;;;;;;;28.73;25.50;;;18.40;99.90;;;;;;5037771;28;20490;-41
2021/06/05 01:30:39;;;;;;;29.90;26.20;;;18.30;99.90;;;;;;5038442;28;20878;-42
2021/06/05 01:33:04;;;;;;;29.30;25.17;;;18.30;99.90;;;;;;5031705;28;20428;-40
2021/06/05 01:35:32;;;;;;;27.43;24.43;;;18.30;99.90;;;;;;5028354;28;20835;-40
2021/06/05 01:37:59;;;;;;;28.20;24.50;;;18.40;99.90;;;;;;5029421;28;20754;-41
2021/06/05 01:40:28;;;;;;;33.83;27.13;;;18.40;99.90;;;;;;5031772;28;20526;-41
2021/06/05 01:42:56;;;;;;;31.20;25.47;;;18.40;99.90;;;;;;5043283;28;20465;-40
2021/06/05 01:45:25;;;;;;;42.80;31.43;;;18.50;99.90;;;;;;5036754;28;20418;-40
2021/06/05 01:47:53;;;;;;;37.30;29.60;;;18.50;99.90;;;;;;5032452;28;20420;-42
2021/06/05 01:50:26;;;;;;;37.97;28.90;;;18.50;99.90;;;;;;5037228;28;20432;-41
2021/06/05 01:52:54;;;;;;;40.00;29.03;;;18.50;99.90;;;;;;5029680;28;20465;-41
2021/06/05 01:55:30;;;;;;;39.90;27.97;;;18.60;99.90;;;;;;5033786;28;20441;-41
2021/06/05 01:57:59;;;;;;;41.20;29.03;;;18.60;99.90;;;;;;5041985;28;20478;-40
2021/06/05 02:00:29;;;;;;;37.00;27.80;;;18.60;99.90;;;;;;5040763;28;20439;-41
2021/06/05 02:02:57;;;;;;;35.73;27.63;;;18.60;99.90;;;;;;5029633;28;20472;-41
2021/06/05 02:05:25;;;;;;;38.17;28.30;;;18.60;99.90;;;;;;5048658;28;20424;-43
2021/06/05 02:07:53;;;;;;;37.10;27.57;;;18.60;99.90;;;;;;5044254;28;20448;-42
2021/06/05 02:10:21;;;;;;;37.40;27.47;;;18.60;99.90;;;;;;5034322;28;20429;-43
2021/06/05 02:12:50;;;;;;;36.17;27.17;;;18.70;99.90;;;;;;5041407;28;20432;-40
2021/06/05 02:15:38;;;;;;;34.10;26.00;;;18.60;99.90;;;;;;5038080;28;20459;-41
2021/06/05 02:18:09;;;;;;;34.93;27.27;;;18.60;99.90;;;;;;5048354;28;20559;-41
2021/06/05 02:20:44;;;;;;;36.00;27.43;;;18.60;99.90;;;;;;5028123;28;20432;-43
2021/06/05 02:23:18;;;;;;;30.43;24.37;;;18.60;99.90;;;;;;5028773;28;20413;-40
2021/06/05 02:25:45;;;;;;;32.90;27.10;;;18.60;99.90;;;;;;5036860;28;21029;-41
2021/06/05 02:28:10;;;;;;;34.37;27.57;;;18.60;99.90;;;;;;5044751;28;20431;-42
2021/06/05 02:30:36;;;;;;;30.30;26.07;;;18.60;99.90;;;;;;5036070;28;20421;-41
2021/06/05 02:33:04;;;;;;;30.77;24.97;;;18.70;99.90;;;;;;5031313;28;20464;-40
2021/06/05 02:35:43;;;;;;;30.07;25.07;;;18.70;99.90;;;;;;5039021;28;20194;-39
2021/06/05 02:38:10;;;;;;;29.07;25.70;;;18.60;99.90;;;;;;5026850;28;20496;-41
2021/06/05 02:40:38;;;;;;;30.50;25.20;;;18.60;99.90;;;;;;5029402;28;20456;-40
2021/06/05 02:43:15;;;;;;;27.57;24.23;;;18.70;99.90;;;;;;5029388;28;20464;-41
2021/06/05 02:46:04;;;;;;;26.67;23.80;;;18.70;99.90;;;;;;5030039;28;20504;-42
2021/06/05 02:49:01;;;;;;;27.20;22.83;;;18.70;99.90;;;;;;5029703;28;20424;-42
2021/06/05 02:51:39;;;;;;;27.53;22.80;;;18.70;99.90;;;;;;5023900;28;20417;-40
2021/06/05 02:54:05;;;;;;;29.40;24.60;;;18.70;99.90;;;;;;5028568;28;20451;-40
2021/06/05 02:56:32;;;;;;;25.53;22.67;;;18.60;99.90;;;;;;5042608;28;20467;-41
2021/06/05 02:58:57;;;;;;;29.47;24.70;;;18.60;99.90;;;;;;5039720;28;20424;-40
2021/06/05 03:01:24;;;;;;;29.53;23.73;;;18.60;99.90;;;;;;5039324;28;20538;-40
2021/06/05 03:03:49;;;;;;;29.17;23.70;;;18.60;99.90;;;;;;5032427;28;20186;-42
2021/06/05 03:06:16;;;;;;;28.57;24.90;;;18.60;99.90;;;;;;5035529;28;20996;-42
2021/06/05 03:08:43;;;;;;;29.90;25.20;;;18.60;99.90;;;;;;5047028;28;20609;-41
2021/06/05 03:11:16;;;;;;;32.10;24.53;;;18.60;99.90;;;;;;5045954;28;20754;-42
2021/06/05 03:13:42;;;;;;;29.60;24.37;;;18.50;99.90;;;;;;5039429;28;20420;-40
2021/06/05 03:16:09;;;;;;;27.17;24.23;;;18.40;99.90;;;;;;5042879;28;20503;-42
2021/06/05 03:18:36;;;;;;;29.80;25.10;;;18.40;99.90;;;;;;5041928;28;20495;-41
2021/06/05 03:21:04;;;;;;;31.40;24.80;;;18.50;99.90;;;;;;5026657;28;20440;-40
2021/06/05 03:23:33;;;;;;;27.90;23.57;;;18.50;99.90;;;;;;5027501;28;20844;-42
2021/06/05 03:25:59;;;;;;;28.80;24.50;;;18.50;99.90;;;;;;5033760;28;20425;-40
2021/06/05 03:28:29;;;;;;;28.27;24.50;;;18.50;99.90;;;;;;5035499;28;20854;-40
2021/06/05 03:30:56;;;;;;;36.23;24.37;;;18.50;99.90;;;;;;5030972;28;20202;-40
2021/06/05 03:33:23;;;;;;;29.90;25.10;;;18.60;99.90;;;;;;5028137;28;20495;-40
2021/06/05 03:35:50;;;;;;;26.73;22.93;;;18.50;99.90;;;;;;5034332;28;20799;-40
2021/06/05 03:38:16;;;;;;;33.07;25.00;;;18.60;99.90;;;;;;5026047;28;20468;-40
2021/06/05 03:40:43;;;;;;;26.10;21.93;;;18.70;99.90;;;;;;5032029;28;20459;-40
2021/06/05 03:43:09;;;;;;;27.57;24.40;;;18.60;99.90;;;;;;5036814;28;20809;-41
2021/06/05 03:45:35;;;;;;;30.80;25.20;;;18.70;99.90;;;;;;5044756;28;20420;-41
2021/06/05 03:48:02;;;;;;;28.80;23.80;;;18.60;99.90;;;;;;5027346;28;20775;-39
2021/06/05 03:50:34;;;;;;;26.80;23.37;;;18.60;99.90;;;;;;5030874;28;20301;-40
2021/06/05 03:53:00;;;;;;;28.97;22.80;;;18.50;99.90;;;;;;5025949;28;20491;-42
2021/06/05 03:55:27;;;;;;;31.57;24.77;;;18.50;99.90;;;;;;5029996;28;20436;-41
2021/06/05 03:57:53;;;;;;;31.13;25.20;;;18.60;99.90;;;;;;5038516;28;20625;-40
2021/06/05 04:00:23;;;;;;;33.80;26.30;;;18.50;99.90;;;;;;5041042;28;20417;-41
2021/06/05 04:02:49;;;;;;;33.03;24.73;;;18.60;99.90;;;;;;5034938;28;20828;-40
2021/06/05 04:05:16;;;;;;;32.70;24.13;;;18.60;99.90;;;;;;5032125;28;20480;-42
2021/06/05 04:07:42;;;;;;;31.23;24.87;;;18.60;99.90;;;;;;5026471;28;20506;-40
2021/06/05 04:10:09;;;;;;;38.83;24.53;;;18.60;99.90;;;;;;5026263;28;20418;-43
2021/06/05 04:12:35;;;;;;;36.40;25.27;;;18.60;99.90;;;;;;5034029;28;20552;-42
2021/06/05 04:15:01;;;;;;;40.57;28.30;;;18.60;99.90;;;;;;5044123;28;20413;-40
2021/06/05 04:17:27;;;;;;;38.93;28.83;;;18.60;99.90;;;;;;5046314;28;20460;-41
2021/06/05 04:19:53;;;;;;;38.00;27.67;;;18.60;99.90;;;;;;5044032;28;20816;-40
2021/06/05 04:22:18;;;;;;;37.07;26.60;;;18.50;99.90;;;;;;5026537;28;20186;-44
2021/06/05 04:24:44;;;;;;;41.50;27.97;;;18.50;99.90;;;;;;5025122;28;20190;-43
2021/06/05 04:27:10;;;;;;;44.50;29.10;;;18.60;99.90;;;;;;5035874;28;20702;-40
2021/06/05 04:29:37;;;;;;;40.17;26.77;;;18.60;99.90;;;;;;5038175;28;20251;-42
2021/06/05 04:32:04;;;;;;;42.37;28.90;;;18.60;99.90;;;;;;5036476;28;20432;-40
2021/06/05 04:34:29;;;;;;;40.80;27.47;;;18.60;99.90;;;;;;5029819;28;20425;-41
2021/06/05 04:36:55;;;;;;;40.30;27.03;;;18.50;99.90;;;;;;5026363;28;20456;-40
2021/06/05 04:39:21;;;;;;;46.50;30.00;;;18.50;99.90;;;;;;5024418;28;20290;-43
2021/06/05 04:41:47;;;;;;;42.70;28.43;;;18.60;99.90;;;;;;5034720;28;20326;-41
2021/06/05 04:44:13;;;;;;;49.43;28.00;;;18.50;99.90;;;;;;5044118;28;20781;-43
2021/06/05 04:46:39;;;;;;;41.27;27.20;;;18.60;99.90;;;;;;5017787;28;20429;-42
2021/06/05 04:49:08;;;;;;;43.23;29.67;;;18.60;99.90;;;;;;5026441;28;20421;-41
2021/06/05 04:51:34;;;;;;;42.43;27.90;;;18.60;99.90;;;;;;5026340;28;20240;-40
2021/06/05 04:54:01;;;;;;;42.63;28.87;;;18.60;99.90;;;;;;5026289;28;20467;-41
2021/06/05 04:56:32;;;;;;;43.47;27.80;;;18.50;99.90;;;;;;5026548;28;20444;-45
2021/06/05 04:58:57;;;;;;;48.03;29.93;;;18.50;99.90;;;;;;5029263;28;20434;-41
2021/06/05 05:01:23;;;;;;;42.70;29.97;;;18.60;99.90;;;;;;5040508;28;20918;-40
2021/06/05 05:03:49;;;;;;;47.40;30.27;;;18.60;99.90;;;;;;5039635;28;20671;-40
2021/06/05 05:06:15;;;;;;;39.33;27.67;;;18.60;99.90;;;;;;5036944;28;20190;-43
2021/06/05 05:08:40;;;;;;;42.17;30.87;;;18.70;99.90;;;;;;5025540;28;20210;-40
2021/06/05 05:11:06;;;;;;;44.10;30.07;;;18.60;99.90;;;;;;5031035;28;20803;-44
2021/06/05 05:13:34;;;;;;;42.73;29.40;;;18.70;99.90;;;;;;5032145;28;20186;-41
2021/06/05 05:16:02;;;;;;;44.37;30.73;;;18.70;99.90;;;;;;5045655;28;20216;-42
2021/06/05 05:18:28;;;;;;;41.17;29.77;;;18.70;99.90;;;;;;5045478;28;20460;-45
2021/06/05 05:20:56;;;;;;;42.70;30.13;;;18.70;99.90;;;;;;5034914;28;20974;-41
2021/06/05 05:23:27;;;;;;;42.10;30.10;;;18.70;99.90;;;;;;5026186;28;20417;-42
2021/06/05 05:25:54;;;;;;;44.33;32.30;;;18.60;99.90;;;;;;5023673;28;20495;-42
2021/06/05 05:28:21;;;;;;;44.50;32.87;;;18.50;99.90;;;;;;5029947;28;20788;-40
2021/06/05 05:30:52;;;;;;;43.50;31.20;;;18.60;99.90;;;;;;5033731;28;20423;-43
2021/06/05 05:33:19;;;;;;;43.60;30.97;;;18.50;99.90;;;;;;5027662;28;20425;-42
2021/06/05 05:35:46;;;;;;;44.90;30.87;;;18.60;99.90;;;;;;5025523;28;20429;-41
2021/06/05 05:38:12;;;;;;;47.03;32.53;;;18.60;99.90;;;;;;5025997;28;20461;-43
2021/06/05 05:40:41;;;;;;;40.50;28.40;;;18.50;99.90;;;;;;5037512;28;20424;-41
2021/06/05 05:43:08;;;;;;;41.13;30.50;;;18.60;99.90;;;;;;5035836;28;20444;-40
2021/06/05 05:45:34;;;;;;;44.60;33.17;;;18.50;99.90;;;;;;5040977;28;20417;-42
2021/06/05 05:48:02;;;;;;;47.90;33.50;;;18.50;99.90;;;;;;5044973;28;20995;-44
2021/06/05 05:50:30;;;;;;;50.17;32.43;;;18.40;99.90;;;;;;5045814;28;20475;-42
2021/06/05 05:52:56;;;;;;;51.27;34.40;;;18.40;99.90;;;;;;5029377;28;20421;-41
2021/06/05 05:55:22;;;;;;;53.93;33.60;;;18.50;99.90;;;;;;5028403;28;20798;-41
2021/06/05 05:57:48;;;;;;;46.87;33.20;;;18.60;99.90;;;;;;5039146;28;20557;-41
2021/06/05 06:00:28;;;;;;;48.93;32.10;;;18.50;99.90;;;;;;5036240;28;20679;-43
2021/06/05 06:02:54;;;;;;;49.90;34.57;;;18.60;99.90;;;;;;5037627;28;20448;-44
2021/06/05 06:05:20;;;;;;;56.17;37.20;;;18.60;99.90;;;;;;5047254;28;20498;-45
2021/06/05 06:07:45;;;;;;;50.90;35.20;;;18.60;99.90;;;;;;5027900;28;20665;-41
2021/06/05 06:10:14;;;;;;;46.83;33.03;;;18.60;99.90;;;;;;5022288;28;20201;-42
2021/06/05 06:12:40;;;;;;;45.70;33.50;;;18.60;99.90;;;;;;5037994;28;20200;-42
2021/06/05 06:15:10;;;;;;;44.80;32.10;;;18.60;99.90;;;;;;5046625;28;20408;-42
2021/06/05 06:17:36;;;;;;;47.33;33.03;;;18.60;99.90;;;;;;5042311;28;20826;-42
2021/06/05 06:20:05;;;;;;;42.73;32.30;;;18.60;99.90;;;;;;5040063;28;20761;-45
2021/06/05 06:22:30;;;;;;;45.60;32.93;;;18.60;99.90;;;;;;5035141;28;20514;-44
2021/06/05 06:24:56;;;;;;;47.30;33.83;;;18.60;99.90;;;;;;5027058;28;20495;-43
2021/06/05 06:27:22;;;;;;;49.20;34.80;;;18.60;99.90;;;;;;5033978;28;20399;-41
2021/06/05 06:29:48;;;;;;;44.37;31.57;;;18.70;99.90;;;;;;5041694;28;20779;-44
2021/06/05 06:32:13;;;;;;;46.57;35.40;;;18.70;99.90;;;;;;5033833;28;20198;-41
2021/06/05 06:34:39;;;;;;;48.10;34.10;;;18.70;99.90;;;;;;5029815;28;20277;-41
2021/06/05 06:37:07;;;;;;;50.30;34.80;;;18.70;99.90;;;;;;5038519;28;20236;-41
2021/06/05 06:39:34;;;;;;;54.27;37.37;;;18.70;99.90;;;;;;5027914;28;20838;-40
2021/06/05 06:42:00;;;;;;;51.77;37.07;;;18.70;99.90;;;;;;5030209;28;20959;-44
2021/06/05 06:44:26;;;;;;;55.10;37.40;;;18.60;99.90;;;;;;5039662;28;20418;-43
2021/06/05 06:46:52;;;;;;;50.13;34.77;;;18.60;99.90;;;;;;5037325;28;20522;-41
2021/06/05 06:49:20;;;;;;;50.80;35.40;;;18.60;99.90;;;;;;5037624;28;20879;-40
2021/06/05 06:51:46;;;;;;;47.30;34.17;;;18.70;99.90;;;;;;5039093;28;20603;-44
2021/06/05 06:54:13;;;;;;;53.53;34.30;;;18.70;99.90;;;;;;5034818;28;20701;-41
2021/06/05 06:56:40;;;;;;;47.40;33.57;;;18.70;99.90;;;;;;5036861;28;20277;-44
2021/06/05 06:59:07;;;;;;;49.53;34.40;;;18.70;99.90;;;;;;5035440;28;20417;-43
2021/06/05 07:01:33;;;;;;;54.57;36.10;;;18.70;99.90;;;;;;5040400;28;20439;-43
2021/06/05 07:03:59;;;;;;;49.37;35.07;;;18.70;99.90;;;;;;5039033;28;20480;-42
2021/06/05 07:06:26;;;;;;;49.90;33.43;;;18.80;99.90;;;;;;5039359;28;20452;-43
2021/06/05 07:08:53;;;;;;;44.90;32.47;;;18.80;99.90;;;;;;5039790;28;20555;-42
2021/06/05 07:11:21;;;;;;;46.80;33.10;;;18.90;99.90;;;;;;5039233;28;20417;-41
2021/06/05 07:13:47;;;;;;;48.87;32.03;;;18.90;99.90;;;;;;5040125;28;20426;-43
2021/06/05 07:16:13;;;;;;;50.90;34.73;;;18.90;99.90;;;;;;5036423;28;20420;-41
2021/06/05 07:18:40;;;;;;;49.67;32.87;;;19.00;99.90;;;;;;5036485;28;20513;-47
2021/06/05 07:21:09;;;;;;;48.60;32.80;;;19.00;99.90;;;;;;5038373;28;20448;-44
2021/06/05 07:23:36;;;;;;;42.80;32.17;;;19.00;99.90;;;;;;5028041;28;20512;-45
2021/06/05 07:26:05;;;;;;;53.20;31.70;;;19.00;99.90;;;;;;5026555;28;20429;-44
2021/06/05 07:28:35;;;;;;;52.37;32.77;;;19.10;99.90;;;;;;5036234;28;20528;-42
2021/06/05 07:31:03;;;;;;;44.70;30.87;;;19.00;99.90;;;;;;5029465;28;20437;-45
2021/06/05 07:33:29;;;;;;;49.47;32.90;;;19.00;99.90;;;;;;5026468;28;20445;-42
2021/06/05 07:35:56;;;;;;;46.07;30.10;;;19.10;99.90;;;;;;5035629;28;20427;-41
2021/06/05 07:38:23;;;;;;;45.00;31.70;;;19.10;99.90;;;;;;5027328;28;20218;-41
2021/06/05 07:40:50;;;;;;;43.57;29.33;;;19.10;99.90;;;;;;5026686;28;20512;-42
2021/06/05 07:43:18;;;;;;;43.40;30.30;;;19.10;99.90;;;;;;5041779;28;20791;-44
2021/06/05 07:45:44;;;;;;;48.43;32.20;;;19.10;99.90;;;;;;5038493;28;20430;-42
2021/06/05 07:48:11;;;;;;;47.20;32.17;;;19.20;99.90;;;;;;5039256;28;20429;-40
2021/06/05 07:50:38;;;;;;;45.37;30.23;;;19.20;99.90;;;;;;5030559;28;20842;-42
2021/06/05 07:53:04;;;;;;;37.70;29.40;;;19.10;99.90;;;;;;5027441;28;20487;-43
2021/06/05 07:55:30;;;;;;;44.20;29.70;;;19.10;99.90;;;;;;5025926;28;20835;-42
2021/06/05 07:57:56;;;;;;;43.70;30.10;;;19.10;99.90;;;;;;5032629;28;20526;-40
2021/06/05 08:00:26;;;;;;;41.77;29.43;;;19.10;99.90;;;;;;5040772;28;20432;-40
2021/06/05 08:02:52;;;;;;;45.77;29.30;;;19.10;99.90;;;;;;5029568;28;20656;-40
2021/06/05 08:05:19;;;;;;;41.77;31.27;;;19.10;99.90;;;;;;5009619;28;20492;-42
2021/06/05 08:07:45;;;;;;;38.17;26.43;;;19.00;99.90;;;;;;5025595;28;20240;-40
2021/06/05 08:10:12;;;;;;;43.70;29.90;;;19.00;99.90;;;;;;5027772;28;20528;-39
2021/06/05 08:12:38;;;;;;;44.03;29.63;;;19.00;99.90;;;;;;5039952;28;20371;-42
2021/06/05 08:15:06;;;;;;;44.67;29.80;;;19.00;99.90;;;;;;5035386;28;20833;-41
2021/06/05 08:17:32;;;;;;;37.33;27.43;;;19.00;99.90;;;;;;5032368;28;20967;-42
2021/06/05 08:19:58;;;;;;;42.73;30.60;;;19.10;99.90;;;;;;5026206;28;20662;-41
2021/06/05 08:22:26;;;;;;;41.17;30.30;;;19.10;99.90;;;;;;5036804;28;20536;-40
2021/06/05 08:24:53;;;;;;;35.47;28.03;;;19.10;99.90;;;;;;5025063;28;20201;-44
2021/06/05 08:27:19;;;;;;;42.20;31.00;;;19.10;99.90;;;;;;5031630;28;20436;-41
2021/06/05 08:29:45;;;;;;;43.53;31.00;;;19.20;99.90;;;;;;5033447;28;20863;-43
2021/06/05 08:32:12;;;;;;;46.97;32.37;;;19.20;99.90;;;;;;5030984;28;20519;-42
2021/06/05 08:34:37;;;;;;;38.87;28.37;;;19.20;99.90;;;;;;5026798;28;20294;-41
2021/06/05 08:37:03;;;;;;;42.77;30.20;;;19.30;99.90;;;;;;5026352;28;20559;-42
2021/06/05 08:39:29;;;;;;;37.43;28.80;;;19.30;99.90;;;;;;5025912;28;20191;-41
2021/06/05 08:41:59;;;;;;;35.10;27.50;;;19.30;99.90;;;;;;5026900;28;20836;-45
2021/06/05 08:44:33;;;;;;;37.67;27.80;;;19.40;99.90;;;;;;5038671;28;20241;-43
2021/06/05 08:47:04;;;;;;;39.63;28.70;;;19.50;99.90;;;;;;5043171;28;20443;-41
2021/06/05 08:49:34;;;;;;;34.43;26.33;;;19.50;99.90;;;;;;5027494;28;20512;-42
2021/06/05 08:52:26;;;;;;;41.50;30.70;;;19.50;99.90;;;;;;5028448;28;20435;-40
2021/06/05 08:55:16;;;;;;;37.97;27.37;;;19.60;99.90;;;;;;5026564;28;20476;-41
2021/06/05 08:57:52;;;;;;;43.93;31.73;;;19.60;99.90;;;;;;5027918;28;20523;-44
2021/06/05 09:00:21;;;;;;;38.30;30.67;;;19.70;99.90;;;;;;5037843;28;20420;-41
2021/06/05 09:02:50;;;;;;;35.77;29.00;;;19.70;99.90;;;;;;5032725;28;20413;-46
2021/06/05 09:05:20;;;;;;;36.30;28.33;;;19.70;99.90;;;;;;5026143;28;21096;-42
2021/06/05 09:07:46;;;;;;;36.90;29.63;;;19.70;99.90;;;;;;5037136;28;21013;-43
2021/06/05 09:10:16;;;;;;;38.10;31.00;;;19.70;99.90;;;;;;5025705;28;20888;-42
2021/06/05 09:12:42;;;;;;;35.10;26.57;;;19.60;99.90;;;;;;5029566;28;20978;-40
2021/06/05 09:15:20;;;;;;;43.17;30.07;;;19.60;99.90;;;;;;5039890;28;20451;-40
2021/06/05 09:17:48;;;;;;;37.10;28.47;;;19.60;99.90;;;;;;5031697;28;20245;-45
2021/06/05 09:20:38;;;;;;;38.43;30.30;;;19.50;99.90;;;;;;5028734;28;20428;-44
2021/06/05 09:23:22;;;;;;;39.13;27.60;;;19.50;99.90;;;;;;5044801;28;20423;-42
2021/06/05 09:25:48;;;;;;;38.97;27.77;;;19.50;99.90;;;;;;5049190;28;20447;-42
2021/06/05 09:28:30;;;;;;;35.80;27.30;;;19.50;99.90;;;;;;5044468;28;20443;-43
2021/06/05 09:31:21;;;;;;;33.57;27.10;;;19.60;99.90;;;;;;5034100;28;20648;-42
2021/06/05 09:33:48;;;;;;;33.27;27.07;;;19.70;99.90;;;;;;5028579;28;20432;-42
2021/06/05 09:36:35;;;;;;;33.50;25.90;;;19.80;99.90;;;;;;5032193;28;20451;-44
2021/06/05 09:39:06;;;;;;;31.03;25.30;;;20.00;99.90;;;;;;5028849;28;20460;-44
2021/06/05 09:41:35;;;;;;;29.23;24.90;;;20.20;99.90;;;;;;5036389;28;20419;-44
2021/06/05 09:44:14;;;;;;;37.97;29.03;;;20.20;99.90;;;;;;5048149;28;20955;-40
2021/06/05 09:46:52;;;;;;;36.87;28.90;;;20.20;99.90;;;;;;5042096;28;20432;-41
2021/06/05 09:49:31;;;;;;;43.80;31.70;;;20.10;99.90;;;;;;5030919;28;20409;-45
2021/06/05 09:52:02;;;;;;;44.30;33.00;;;20.00;99.90;;;;;;5040306;28;20910;-43
2021/06/05 09:54:46;;;;;;;45.53;33.70;;;19.90;99.90;;;;;;5029766;28;20408;-41
2021/06/05 09:57:30;;;;;;;43.70;32.70;;;19.90;99.90;;;;;;5029228;28;20738;-41
2021/06/05 10:00:30;;;;;;;44.07;33.70;;;19.90;99.90;;;;;;5042841;28;20862;-42
2021/06/05 10:03:20;;;;;;;43.53;33.40;;;19.90;99.90;;;;;;5029282;28;20417;-43
2021/06/05 10:05:49;;;;;;;41.10;31.93;;;19.90;99.90;;;;;;5029443;28;20912;-41
2021/06/05 10:08:36;;;;;;;41.27;33.70;;;19.90;99.90;;;;;;5035081;28;20807;-41
2021/06/05 10:11:24;;;;;;;45.33;33.33;;;19.90;99.90;;;;;;5026993;28;20433;-46
2021/06/05 10:14:14;;;;;;;44.10;32.53;;;20.00;99.90;;;;;;5032643;28;21052;-40
2021/06/05 10:16:44;;;;;;;43.80;31.50;;;19.90;99.90;;;;;;5045916;28;20527;-45
2021/06/05 10:19:17;;;;;;;39.90;30.50;;;19.90;99.90;;;;;;5039355;28;20677;-41
2021/06/05 10:21:48;;;;;;;39.83;31.30;;;20.00;99.90;;;;;;5032877;28;20425;-42
2021/06/05 10:24:49;;;;;;;42.83;32.13;;;20.00;99.90;;;;;;5028463;28;20457;-42
2021/06/05 10:27:19;;;;;;;35.83;27.30;;;20.10;99.90;;;;;;5028908;28;20430;-41
2021/06/05 10:29:49;;;;;;;35.33;28.77;;;20.20;99.90;;;;;;5034804;28;20508;-40
2021/06/05 10:32:19;;;;;;;34.90;27.30;;;20.30;99.90;;;;;;5038935;28;20428;-42
2021/06/05 10:34:50;;;;;;;30.40;23.70;;;20.50;99.90;;;;;;5028846;28;20452;-45
2021/06/05 10:37:20;;;;;;;33.77;25.37;;;20.60;99.90;;;;;;5029125;28;20461;-44
2021/06/05 10:39:47;;;;;;;37.97;27.17;;;20.80;99.90;;;;;;5027058;28;20807;-43
2021/06/05 10:42:48;;;;;;;33.17;26.00;;;20.90;99.90;;;;;;5028268;28;20543;-44
2021/06/05 10:45:24;;;;;;;34.70;25.77;;;21.10;99.90;;;;;;5033958;28;20424;-43
2021/06/05 10:48:03;;;;;;;33.07;24.50;;;21.20;99.90;;;;;;5031276;28;20445;-43
2021/06/05 10:50:33;;;;;;;34.07;26.80;;;21.40;99.90;;;;;;5026870;28;20436;-42
2021/06/05 10:53:29;;;;;;;35.93;26.30;;;21.50;99.90;;;;;;5037598;28;20413;-43
2021/06/05 10:56:02;;;;;;;33.60;26.30;;;21.60;99.90;;;;;;5028152;28;20422;-42
2021/06/05 10:58:34;;;;;;;33.67;26.33;;;21.70;99.90;;;;;;5035329;28;20464;-40
2021/06/05 11:01:09;;;;;;;32.03;24.40;;;21.90;99.90;;;;;;5035903;28;20428;-43
2021/06/05 11:03:38;;;;;;;28.50;23.37;;;22.00;99.90;;;;;;5033283;28;20424;-42
2021/06/05 11:06:17;;;;;;;28.73;23.23;;;22.10;99.90;;;;;;5028049;28;20417;-43
2021/06/05 11:09:01;;;;;;;37.73;24.53;;;22.20;99.90;;;;;;5043336;28;20534;-41
2021/06/05 11:11:42;;;;;;;27.57;22.87;;;22.20;99.90;;;;;;5048067;28;20412;-41
2021/06/05 11:14:10;;;;;;;30.33;24.23;;;22.20;99.90;;;;;;5043219;28;20936;-42
2021/06/05 11:16:58;;;;;;;27.70;23.40;;;22.10;99.90;;;;;;5043418;28;20474;-43
2021/06/05 11:19:34;;;;;;;22.40;19.97;;;22.00;99.90;;;;;;5038747;28;20838;-41
2021/06/05 11:22:15;;;;;;;28.03;21.93;;;22.00;99.90;;;;;;5041413;28;20706;-46
2021/06/05 11:24:44;;;;;;;22.57;19.57;;;22.00;99.90;;;;;;5026906;28;20457;-41
2021/06/05 11:27:35;;;;;;;24.03;19.77;;;22.00;99.90;;;;;;5027814;28;20433;-40
2021/06/05 11:30:04;;;;;;;28.30;22.77;;;22.10;99.90;;;;;;5035222;28;20981;-45
2021/06/05 11:32:47;;;;;;;27.93;23.70;;;22.10;99.90;;;;;;5037606;28;20433;-41
2021/06/05 11:35:31;;;;;;;29.63;23.27;;;22.00;99.90;;;;;;5035531;28;20435;-45
2021/06/05 11:37:59;;;;;;;30.80;25.00;;;22.10;99.90;;;;;;5043809;28;20461;-46
2021/06/05 11:40:46;;;;;;;26.37;22.60;;;22.10;99.90;;;;;;5026764;28;20428;-42
2021/06/05 11:43:28;;;;;;;25.70;22.13;;;22.10;99.90;;;;;;5033158;28;20436;-41
2021/06/05 11:46:03;;;;;;;28.57;24.27;;;22.30;99.90;;;;;;5040781;28;20412;-42
2021/06/05 11:48:38;;;;;;;28.97;23.27;;;22.30;99.90;;;;;;5033606;28;20848;-45
2021/06/05 11:51:19;;;;;;;29.03;24.53;;;22.30;99.90;;;;;;5027093;28;20451;-45
2021/06/05 11:53:48;;;;;;;27.67;23.43;;;22.30;99.90;;;;;;5033260;28;20423;-42
2021/06/05 11:56:20;;;;;;;30.23;24.97;;;22.20;99.90;;;;;;5027040;28;20870;-42
2021/06/05 11:58:46;;;;;;;30.17;24.40;;;22.20;99.90;;;;;;5030167;28;20826;-44
2021/06/05 12:01:21;;;;;;;29.17;25.77;;;22.10;99.90;;;;;;5042659;28;20420;-41
2021/06/05 12:03:51;;;;;;;31.30;27.40;;;22.10;99.90;;;;;;5042402;28;20499;-44
2021/06/05 12:06:28;;;;;;;43.60;34.40;;;22.00;99.90;;;;;;5025799;28;20468;-41
2021/06/05 12:09:23;;;;;;;42.87;35.00;;;22.00;99.90;;;;;;5042541;28;20810;-42
2021/06/05 12:11:56;;;;;;;40.20;31.83;;;21.90;99.90;;;;;;5046890;28;20798;-42
2021/06/05 12:14:24;;;;;;;44.17;36.07;;;21.80;99.90;;;;;;5034944;28;20444;-42
2021/06/05 12:16:57;;;;;;;44.00;36.57;;;21.80;99.90;;;;;;5040357;28;20467;-43
2021/06/05 12:19:32;;;;;;;44.47;35.37;;;21.70;99.90;;;;;;5031830;28;20417;-45
2021/06/05 12:22:28;;;;;;;43.30;35.87;;;21.80;99.90;;;;;;5029051;28;20504;-45
2021/06/05 12:24:55;;;;;;;47.17;38.27;;;21.80;99.90;;;;;;5027343;28;20429;-42
2021/06/05 12:27:31;;;;;;;48.60;38.90;;;21.80;99.90;;;;;;5026858;28;20425;-41
2021/06/05 12:30:05;;;;;;;46.60;37.33;;;21.70;99.90;;;;;;5027028;28;20436;-42
2021/06/05 12:32:31;;;;;;;49.87;39.23;;;21.80;99.90;;;;;;5036064;28;20439;-40
2021/06/05 12:34:56;;;;;;;44.07;36.37;;;21.70;99.90;;;;;;5025408;28;20915;-45
2021/06/05 12:37:27;;;;;;;48.37;36.20;;;21.60;99.90;;;;;;5031285;28;20214;-44
2021/06/05 12:40:00;;;;;;;42.27;35.60;;;21.60;99.90;;;;;;5025533;28;20285;-41
2021/06/05 12:42:35;;;;;;;40.30;35.80;;;21.60;99.90;;;;;;5026458;28;20923;-41
2021/06/05 12:45:13;;;;;;;41.30;34.13;;;21.50;99.90;;;;;;5034030;28;20486;-41
2021/06/05 12:47:43;;;;;;;42.73;36.07;;;21.40;99.90;;;;;;5037716;28;20427;-41